Time,TemperatureF,DewpointF,PressureIn,WindDirection,WindDirectionDegrees,WindSpeedMPH,WindSpeedGustMPH,Humidity,HourlyPrecipIn,Conditions,Clouds,dailyrainin,SolarRadiationWatts/m^2,SoftwareType,DateUTC
2013-03-01 00:00:00,36.7,32.6,29.50,NNE,20,4.9,8.1,85,0.00,CLR,,0.00,0.0,WeatherDisplay:10.37,2013-03-01 05:00:00,
2013-03-01 00:05:00,36.8,32.4,29.50,NNE,20,5.5,10.4,84,0.00,CLR,,0.00,0.0,WeatherDisplay:10.37,2013-03-01 05:05:00,
2013-03-01 00:06:00,36.9,32.5,29.50,NNE,20,5.2,10.4,84,0.00,CLR,,0.00,0.0,WeatherDisplay:10.37,2013-03-01 05:06:00,
2013-03-01 00:11:00,36.9,32.8,29.50,NNE,24,5.2,9.2,85,0.00,CLR,,0.00,0.0,WeatherDisplay:10.37,2013-03-01 05:11:00,
2013-03-01 00:16:00,36.9,32.8,29.50,NNE,20,6.2,9.2,85,0.00,CLR,,0.00,0.0,WeatherDisplay:10.37,2013-03-01 05:16:00,
2013-03-01 00:21:00,36.9,32.8,29.50,NNE,20,4.8,6.9,85,0.00,CLR,,0.00,0.0,WeatherDisplay:10.37,2013-03-01 05:21:00,
2013-03-01 00:26:00,36.9,32.8,29.50,NNE,20,4.7,5.8,85,0.00,CLR,,0.00,0.0,WeatherDisplay:10.37,2013-03-01 05:26:00,
2013-03-01 00:31:00,36.9,32.8,29.50,NNE,20,5.1,9.2,85,0.00,CLR,,0.00,0.0,WeatherDisplay:10.37,2013-03-01 05:31:00,
2013-03-01 00:36:00,36.9,32.8,29.50,NNE,20,5.5,10.0,85,0.00,CLR,,0.00,0.0,WeatherDisplay:10.37,2013-03-01 05:36:00,
2013-03-01 00:41:00,37.0,32.9,29.50,NNE,20,5.4,9.2,85,0.00,CLR,,0.00,0.0,WeatherDisplay:10.37,2013-03-01 05:41:00,
2013-03-01 00:46:00,37.1,33.0,29.50,NNE,20,5.6,8.1,85,0.00,CLR,,0.00,0.0,WeatherDisplay:10.37,2013-03-01 05:46:00,
2013-03-01 00:51:00,37.1,33.0,29.50,NNE,20,6.0,9.2,85,0.00,CLR,,0.00,0.0,WeatherDisplay:10.37,2013-03-01 05:51:00,
2013-03-01 00:56:00,37.1,33.0,29.50,NNE,20,5.5,6.9,85,0.00,CLR,,0.00,0.0,WeatherDisplay:10.37,2013-03-01 05:56:00,
2013-03-01 01:01:00,37.2,33.1,29.50,NNE,20,3.6,6.0,85,0.00,CLR,,0.00,0.0,WeatherDisplay:10.37,2013-03-01 06:01:00,
2013-03-01 01:06:00,37.3,33.2,29.50,NNE,20,4.1,6.9,85,0.00,CLR,,0.00,0.0,WeatherDisplay:10.37,2013-03-01 06:06:00,
2013-03-01 01:11:00,37.4,33.3,29.50,NNE,20,3.1,8.1,85,0.00,CLR,,0.00,0.0,WeatherDisplay:10.37,2013-03-01 06:11:00,
2013-03-01 01:16:00,37.4,33.3,29.50,NNE,20,3.0,5.8,85,0.00,CLR,,0.00,0.0,WeatherDisplay:10.37,2013-03-01 06:16:00,
2013-03-01 01:21:00,37.5,33.4,29.50,NNE,20,3.4,5.8,85,0.00,CLR,,0.00,0.0,WeatherDisplay:10.37,2013-03-01 06:21:00,
2013-03-01 01:26:00,37.5,33.4,29.50,NNE,20,3.6,5.0,85,0.00,CLR,,0.00,0.0,WeatherDisplay:10.37,2013-03-01 06:26:00,
2013-03-01 01:31:00,37.4,33.3,29.50,NNE,20,5.0,9.2,85,0.00,CLR,,0.00,0.0,WeatherDisplay:10.37,2013-03-01 06:31:00,
2013-03-01 01:36:00,37.4,33.3,29.50,NNE,20,0.7,2.0,85,0.00,CLR,,0.00,0.0,WeatherDisplay:10.37,2013-03-01 06:36:00,
2013-03-01 01:41:00,37.4,33.3,29.50,NNE,20,2.4,3.5,85,0.00,CLR,,0.00,0.0,WeatherDisplay:10.37,2013-03-01 06:41:00,
2013-03-01 01:46:00,37.3,33.2,29.50,NNE,20,3.2,4.6,85,0.00,CLR,,0.00,0.0,WeatherDisplay:10.37,2013-03-01 06:46:00,
2013-03-01 01:51:00,37.3,33.2,29.50,NNE,20,5.2,8.1,85,0.00,CLR,,0.00,0.0,WeatherDisplay:10.37,2013-03-01 06:51:00,
2013-03-01 01:56:00,37.3,33.2,29.50,NNE,20,0.5,3.5,85,0.00,CLR,,0.00,0.0,WeatherDisplay:10.37,2013-03-01 06:56:00,
2013-03-01 02:01:00,37.3,33.2,29.50,NNE,20,2.5,4.6,85,0.00,CLR,,0.00,0.0,WeatherDisplay:10.37,2013-03-01 07:01:00,
2013-03-01 19:11:00,37.9,29.7,29.64,NNE,20,0.4,4.0,72,0.00,CLR,,0.00,0.0,WeatherDisplay:10.37,2013-03-02 00:11:00,
2013-03-01 19:16:00,37.9,29.7,29.64,NNE,20,2.1,3.5,72,0.00,CLR,,0.00,0.0,WeatherDisplay:10.37,2013-03-02 00:16:00,
2013-03-01 19:19:00,37.9,29.7,29.64,NNE,22,2.0,6.0,72,0.00,OVC,,0.00,0.0,WeatherDisplay:10.37,2013-03-02 00:19:00,
2013-03-01 19:21:00,37.8,29.6,29.64,NNE,20,2.3,3.5,72,0.00,CLR,,0.00,0.0,WeatherDisplay:10.37,2013-03-02 00:21:00,
2013-03-01 19:24:00,37.9,29.7,29.64,NNE,22,3.0,6.0,72,0.00,OVC,,0.00,0.0,WeatherDisplay:10.37,2013-03-02 00:24:00,
2013-03-01 19:26:00,37.9,29.7,29.64,NNE,20,2.3,3.5,72,0.00,CLR,,0.00,0.0,WeatherDisplay:10.37,2013-03-02 00:26:00,
2013-03-01 19:29:00,37.9,30.0,29.64,NNE,22,1.0,6.0,73,0.00,OVC,,0.00,0.0,WeatherDisplay:10.37,2013-03-02 00:29:00,
2013-03-01 19:31:00,37.9,30.0,29.64,NNE,20,2.3,3.5,73,0.00,CLR,,0.00,0.0,WeatherDisplay:10.37,2013-03-02 00:31:00,
2013-03-01 19:34:00,37.9,30.0,29.64,NNE,22,1.0,4.0,73,0.00,OVC,,0.00,0.0,WeatherDisplay:10.37,2013-03-02 00:34:00,
2013-03-01 19:36:00,37.9,30.0,29.64,NNE,20,2.3,3.5,73,0.00,CLR,,0.00,0.0,WeatherDisplay:10.37,2013-03-02 00:36:00,
2013-03-01 19:39:00,37.8,29.9,29.64,NNE,22,2.0,6.0,73,0.00,OVC,,0.00,0.0,WeatherDisplay:10.37,2013-03-02 00:39:00,
2013-03-01 19:41:00,37.8,29.9,29.64,NNE,20,2.3,3.5,73,0.00,CLR,,0.00,0.0,WeatherDisplay:10.37,2013-03-02 00:41:00,
2013-03-01 19:46:00,37.7,30.2,29.64,NNE,20,2.3,4.0,74,0.00,CLR,,0.00,0.0,WeatherDisplay:10.37,2013-03-02 00:46:00,
2013-03-01 19:51:00,37.7,30.5,29.64,NNE,20,2.8,4.6,75,0.00,CLR,,0.00,0.0,WeatherDisplay:10.37,2013-03-02 00:51:00,
2013-03-01 19:56:00,37.7,30.2,29.64,NNE,20,2.0,3.5,74,0.00,CLR,,0.00,0.0,WeatherDisplay:10.37,2013-03-02 00:56:00,
2013-03-01 20:01:00,37.7,30.5,29.64,NNE,20,0.0,0.0,75,0.00,CLR,,0.00,0.0,WeatherDisplay:10.37,2013-03-02 01:01:00,
2013-03-01 20:06:00,37.7,30.2,29.65,NNE,20,2.8,6.9,74,0.00,CLR,,0.00,0.0,WeatherDisplay:10.37,2013-03-02 01:06:00,
2013-03-01 20:11:00,37.6,30.1,29.65,NNE,20,0.0,0.0,74,0.00,CLR,,0.00,0.0,WeatherDisplay:10.37,2013-03-02 01:11:00,
2013-03-01 20:16:00,37.5,30.0,29.65,NNE,20,4.4,4.6,74,0.00,CLR,,0.00,0.0,WeatherDisplay:10.37,2013-03-02 01:16:00,
2013-03-01 20:21:00,37.5,30.0,29.65,NNE,20,1.4,0.0,74,0.00,CLR,,0.00,0.0,WeatherDisplay:10.37,2013-03-02 01:21:00,
2013-03-01 20:26:00,37.4,29.9,29.65,NNE,20,3.3,3.5,74,0.00,CLR,,0.00,0.0,WeatherDisplay:10.37,2013-03-02 01:26:00,
2013-03-01 20:31:00,37.4,29.9,29.65,NNE,20,4.0,4.6,74,0.00,CLR,,0.00,0.0,WeatherDisplay:10.37,2013-03-02 01:31:00,
2013-03-01 20:36:00,37.3,29.8,29.65,NNE,20,3.3,3.5,74,0.00,CLR,,0.00,0.0,WeatherDisplay:10.37,2013-03-02 01:36:00,
2013-03-01 20:41:00,37.3,29.8,29.65,NNE,20,2.4,3.5,74,0.00,CLR,,0.00,0.0,WeatherDisplay:10.37,2013-03-02 01:41:00,
2013-03-01 20:46:00,37.2,30.0,29.65,NNE,20,2.0,5.8,75,0.00,CLR,,0.00,0.0,WeatherDisplay:10.37,2013-03-02 01:46:00,
2013-03-01 20:51:00,37.2,30.0,29.65,NNE,20,1.1,4.6,75,0.00,CLR,,0.00,0.0,WeatherDisplay:10.37,2013-03-02 01:51:00,
2013-03-01 20:56:00,37.2,30.0,29.65,NNE,20,0.4,2.3,75,0.00,CLR,,0.00,0.0,WeatherDisplay:10.37,2013-03-02 01:56:00,
2013-03-01 21:01:00,37.1,30.2,29.65,NNE,20,2.1,2.3,76,0.00,CLR,,0.00,0.0,WeatherDisplay:10.37,2013-03-02 02:01:00,
2013-03-01 21:06:00,37.1,29.9,29.65,NNE,20,3.8,4.6,75,0.00,CLR,,0.00,0.0,WeatherDisplay:10.37,2013-03-02 02:06:00,
2013-03-01 21:11:00,37.0,29.8,29.65,NNE,20,2.0,7.0,75,0.00,CLR,,0.00,0.0,WeatherDisplay:10.37,2013-03-02 02:11:00,
2013-03-01 21:16:00,36.9,29.7,29.65,NNE,20,2.5,4.6,75,0.00,CLR,,0.00,0.0,WeatherDisplay:10.37,2013-03-02 02:16:00,
2013-03-01 21:21:00,36.9,29.4,29.65,NNE,20,5.7,9.2,74,0.00,CLR,,0.00,0.0,WeatherDisplay:10.37,2013-03-02 02:21:00,
2013-03-01 21:26:00,36.8,29.3,29.65,NNE,20,3.1,6.9,74,0.00,CLR,,0.00,0.0,WeatherDisplay:10.37,2013-03-02 02:26:00,
2013-03-01 21:31:00,36.8,29.3,29.65,NNE,20,5.7,6.9,74,0.00,CLR,,0.00,0.0,WeatherDisplay:10.37,2013-03-02 02:31:00,
2013-03-01 21:36:00,36.8,29.3,29.65,NNE,20,4.7,8.1,74,0.00,CLR,,0.00,0.0,WeatherDisplay:10.37,2013-03-02 02:36:00,
2013-03-01 21:41:00,36.8,29.0,29.65,NNE,20,5.5,8.1,73,0.00,CLR,,0.00,0.0,WeatherDisplay:10.37,2013-03-02 02:41:00,
2013-03-01 21:46:00,36.7,28.9,29.65,NNE,20,3.1,9.2,73,0.00,CLR,,0.00,0.0,WeatherDisplay:10.37,2013-03-02 02:46:00,
2013-03-01 21:51:00,36.7,28.9,29.65,NNE,20,4.7,5.8,73,0.00,CLR,,0.00,0.0,WeatherDisplay:10.37,2013-03-02 02:51:00,
2013-03-01 21:56:00,36.6,29.1,29.65,NNE,20,3.8,3.8,74,0.00,CLR,,0.00,0.0,WeatherDisplay:10.37,2013-03-02 02:56:00,
2013-03-01 22:01:00,36.6,29.1,29.64,NNE,20,1.7,2.3,74,0.00,CLR,,0.00,0.0,WeatherDisplay:10.37,2013-03-02 03:01:00,
2013-03-01 22:06:00,36.6,29.1,29.64,NNE,20,2.9,5.8,74,0.00,CLR,,0.00,0.0,WeatherDisplay:10.37,2013-03-02 03:06:00,
2013-03-01 22:11:00,36.6,29.1,29.64,NNE,20,4.7,6.9,74,0.00,CLR,,0.00,0.0,WeatherDisplay:10.37,2013-03-02 03:11:00,
2013-03-01 22:16:00,36.5,29.0,29.65,NNE,20,2.8,5.8,74,0.00,CLR,,0.00,0.0,WeatherDisplay:10.37,2013-03-02 03:16:00,
2013-03-01 22:21:00,36.5,29.0,29.65,NNE,20,2.2,4.6,74,0.00,CLR,,0.00,0.0,WeatherDisplay:10.37,2013-03-02 03:21:00,
2013-03-01 22:26:00,36.4,28.9,29.65,NNE,20,3.9,5.8,74,0.00,CLR,,0.00,0.0,WeatherDisplay:10.37,2013-03-02 03:26:00,
2013-03-01 22:32:00,36.3,28.8,29.65,NNE,20,0.8,3.5,74,0.00,CLR,,0.00,0.0,WeatherDisplay:10.37,2013-03-02 03:32:00,
2013-03-01 22:37:00,36.2,28.7,29.65,NNE,20,1.2,3.5,74,0.00,CLR,,0.00,0.0,WeatherDisplay:10.37,2013-03-02 03:37:00,
2013-03-01 22:42:00,36.1,28.9,29.65,NNE,20,0.7,0.0,75,0.00,CLR,,0.00,0.0,WeatherDisplay:10.37,2013-03-02 03:42:00,
2013-03-01 22:47:00,36.1,28.9,29.65,NNE,20,5.7,6.9,75,0.00,CLR,,0.00,0.0,WeatherDisplay:10.37,2013-03-02 03:47:00,
2013-03-01 22:52:00,36.0,28.8,29.65,NNE,20,2.5,3.5,75,0.00,CLR,,0.00,0.0,WeatherDisplay:10.37,2013-03-02 03:52:00,
2013-03-01 22:57:00,36.0,28.8,29.65,NNE,20,2.2,3.5,75,0.00,CLR,,0.00,0.0,WeatherDisplay:10.37,2013-03-02 03:57:00,
2013-03-01 23:02:00,36.0,28.8,29.65,NNE,20,3.3,6.0,75,0.00,CLR,,0.00,0.0,WeatherDisplay:10.37,2013-03-02 04:02:00,
2013-03-01 23:07:00,35.9,28.7,29.65,NNE,20,4.3,4.3,75,0.00,CLR,,0.00,0.0,WeatherDisplay:10.37,2013-03-02 04:07:00,
2013-03-01 23:12:00,35.9,28.7,29.65,NNE,20,3.0,6.0,75,0.00,CLR,,0.00,0.0,WeatherDisplay:10.37,2013-03-02 04:12:00,
2013-03-01 23:17:00,35.9,28.7,29.65,NNE,20,0.5,4.6,75,0.00,CLR,,0.00,0.0,WeatherDisplay:10.37,2013-03-02 04:17:00,
2013-03-01 23:22:00,35.9,28.7,29.65,NNE,20,5.5,5.5,75,0.00,CLR,,0.00,0.0,WeatherDisplay:10.37,2013-03-02 04:22:00,
2013-03-01 23:27:00,35.8,28.6,29.65,NNE,20,4.2,5.8,75,0.00,CLR,,0.00,0.0,WeatherDisplay:10.37,2013-03-02 04:27:00,
2013-03-01 23:32:00,35.8,28.6,29.65,NNE,20,1.8,5.8,75,0.00,CLR,,0.00,0.0,WeatherDisplay:10.37,2013-03-02 04:32:00,
2013-03-01 23:37:00,35.7,28.6,29.65,NNE,20,0.8,2.3,75,0.00,CLR,,0.00,0.0,WeatherDisplay:10.37,2013-03-02 04:37:00,
2013-03-01 23:42:00,35.6,28.5,29.65,NNE,20,4.1,8.0,75,0.00,CLR,,0.00,0.0,WeatherDisplay:10.37,2013-03-02 04:42:00,
2013-03-01 23:47:00,35.6,28.5,29.64,NNE,20,2.6,7.0,75,0.00,CLR,,0.00,0.0,WeatherDisplay:10.37,2013-03-02 04:47:00,
2013-03-01 23:52:00,35.5,28.4,29.64,NNE,20,3.0,4.6,75,0.00,CLR,,0.00,0.0,WeatherDisplay:10.37,2013-03-02 04:52:00,
2013-03-01 23:57:00,35.5,28.4,29.64,NNE,20,0.7,3.5,75,0.00,CLR,,0.00,0.0,WeatherDisplay:10.37,2013-03-02 04:57:00,